Time;durP1;ratioP1;P1;durP2;ratioP2;P2;SDS_P1;SDS_P2;PMS_P1;PMS_P2;Temp;Humidity;BMP_temperature;BMP_pressure;BME280_temperature;BME280_humidity;BME280_pressure;Samples;Min_cycle;Max_cycle;Signal;HPM_P1;HPM_P2
2022/09/12 00:02:38;;;;;;;3.50;3.30;;;;;;;24.87;46.76;94851.91;6166828;28;103222;-78
2022/09/12 00:05:43;;;;;;;3.20;3.00;;;;;;;24.89;46.63;94852.38;6166429;28;103643;-77
2022/09/12 00:08:47;;;;;;;3.63;3.33;;;;;;;24.87;46.34;94854.59;6161890;28;103102;-77
2022/09/12 00:11:50;;;;;;;3.83;3.53;;;;;;;24.87;46.21;94851.91;6161974;28;102962;-78
2022/09/12 00:14:53;;;;;;;2.97;2.77;;;;;;;24.86;46.29;94858.34;6165007;28;103515;-77
2022/09/12 00:17:56;;;;;;;3.23;3.03;;;;;;;24.85;46.00;94864.81;6166620;28;102771;-79
2022/09/12 00:21:04;;;;;;;3.23;2.83;;;;;;;24.84;46.13;94867.84;6159005;28;103056;-77
2022/09/12 00:24:08;;;;;;;2.60;2.50;;;;;;;24.81;46.43;94855.88;6166259;28;103613;-77
2022/09/12 00:27:11;;;;;;;3.67;3.37;;;;;;;24.84;45.94;94875.84;6165900;28;103318;-77
2022/09/12 00:30:14;;;;;;;3.43;3.20;;;;;;;24.78;45.82;94873.41;6165212;28;103057;-77
2022/09/12 00:33:18;;;;;;;2.77;2.57;;;;;;;24.81;45.98;94874.63;6158045;28;103123;-78
2022/09/12 00:36:25;;;;;;;3.63;2.90;;;;;;;24.81;45.86;94877.31;6141494;28;104064;-79
2022/09/12 00:39:28;;;;;;;3.10;2.80;;;;;;;24.83;45.87;94868.94;6163296;28;103381;-77
2022/09/12 00:42:31;;;;;;;2.93;2.73;;;;;;;24.81;45.95;94866.59;6162041;28;103517;-78
2022/09/12 00:45:34;;;;;;;5.63;3.30;;;;;;;24.81;45.57;94866.59;6159050;28;103317;-77
2022/09/12 00:48:42;;;;;;;2.90;2.70;;;;;;;24.77;45.69;94865.69;6165006;28;103483;-75
2022/09/12 00:51:51;;;;;;;2.90;2.70;;;;;;;24.82;45.55;94870.84;6164719;28;103349;-77
2022/09/12 00:54:59;;;;;;;3.33;3.03;;;;;;;24.81;45.63;94871.94;6156993;28;103107;-77
2022/09/12 00:58:07;;;;;;;3.03;2.83;;;;;;;24.82;45.48;94870.84;6164994;28;103056;-77
2022/09/12 01:01:10;;;;;;;3.33;2.87;;;;;;;24.81;45.79;94865.81;6164534;28;103001;-77
2022/09/12 01:04:13;;;;;;;3.13;2.90;;;;;;;24.77;45.40;94868.38;6165200;28;103689;-76
2022/09/12 01:07:19;;;;;;;3.63;2.73;;;;;;;24.77;45.73;94860.34;6158165;28;103235;-78
2022/09/12 01:10:23;;;;;;;3.10;2.90;;;;;;;24.77;45.55;94855.78;6165641;28;103224;-78
2022/09/12 01:13:28;;;;;;;2.80;2.57;;;;;;;24.76;45.71;94861.44;6164558;28;103368;-77
2022/09/12 01:16:32;;;;;;;3.40;3.20;;;;;;;24.80;45.29;94848.97;6160796;28;103389;-77
2022/09/12 01:20:14;;;;;;;2.70;2.50;;;;;;;24.78;45.69;94845.84;6161385;28;103441;-77
2022/09/12 01:23:38;;;;;;;2.63;2.43;;;;;;;24.78;45.44;94840.50;6163754;28;103249;-78
2022/09/12 01:27:19;;;;;;;2.67;2.50;;;;;;;24.77;45.68;94841.59;6164672;28;103026;-76
2022/09/12 01:30:40;;;;;;;3.00;2.80;;;;;;;24.73;45.56;94843.38;6157089;28;103764;-77
2022/09/12 01:33:53;;;;;;;2.80;2.70;;;;;;;24.74;45.11;94843.03;6164946;28;103240;-77
2022/09/12 01:37:04;;;;;;;2.90;2.70;;;;;;;24.73;45.38;94848.72;6164264;28;103274;-77
2022/09/12 01:40:15;;;;;;;2.60;2.40;;;;;;;24.72;45.54;94847.94;6158419;28;103744;-77
2022/09/12 01:43:24;;;;;;;2.70;2.50;;;;;;;24.69;45.23;94845.91;6164200;28;104121;-78
2022/09/12 01:46:33;;;;;;;3.47;3.00;;;;;;;24.70;45.19;94849.38;6158357;28;103276;-76
2022/09/12 01:49:41;;;;;;;3.53;2.93;;;;;;;24.70;45.16;94849.38;6163328;28;103543;-78
2022/09/12 01:52:50;;;;;;;2.90;2.70;;;;;;;24.70;44.92;94846.72;6156846;28;103226;-76
2022/09/12 01:55:57;;;;;;;2.90;2.70;;;;;;;24.69;45.24;94837.09;6164452;28;103235;-78
2022/09/12 01:59:05;;;;;;;3.10;2.40;;;;;;;24.68;44.88;94843.56;6164279;28;103088;-77
2022/09/12 02:02:16;;;;;;;2.70;2.50;;;;;;;24.67;44.97;94836.59;6159294;28;103583;-77
2022/09/12 02:05:25;;;;;;;3.03;2.83;;;;;;;24.66;45.08;94838.50;6152202;28;103265;-77
2022/09/12 02:08:33;;;;;;;2.70;2.60;;;;;;;24.64;44.91;94830.03;6164245;28;104703;-76
2022/09/12 02:11:41;;;;;;;4.13;2.60;;;;;;;24.66;44.73;94835.81;6163251;28;103354;-76
2022/09/12 02:14:49;;;;;;;6.33;2.40;;;;;;;24.66;44.80;94838.50;6157380;28;103390;-75
2022/09/12 02:17:59;;;;;;;3.20;2.50;;;;;;;24.64;44.80;94842.63;6163519;28;103134;-77
2022/09/12 02:21:06;;;;;;;3.30;3.00;;;;;;;24.61;44.61;94846.72;6162019;28;103385;-77
2022/09/12 02:24:12;;;;;;;2.50;2.30;;;;;;;24.66;44.36;94848.41;6163899;28;104592;-75
2022/09/12 02:27:19;;;;;;;2.87;2.50;;;;;;;24.64;44.75;94853.31;6155417;28;103108;-76
2022/09/12 02:30:26;;;;;;;2.30;2.10;;;;;;;24.60;44.78;94850.53;6162960;28;103310;-77
2022/09/12 02:33:38;;;;;;;2.60;2.40;;;;;;;24.60;44.55;94850.53;6163255;28;103426;-76
2022/09/12 02:36:50;;;;;;;3.17;2.87;;;;;;;24.60;44.58;94845.16;6155889;28;103704;-76
2022/09/12 02:39:54;;;;;;;2.50;2.30;;;;;;;24.60;44.27;94855.88;6162804;28;103118;-76
2022/09/12 02:42:57;;;;;;;2.57;2.37;;;;;;;24.62;44.29;94852.88;6163413;28;106247;-77
2022/09/12 02:46:00;;;;;;;3.50;2.70;;;;;;;24.59;44.19;94853.53;6139067;28;103610;-77
2022/09/12 02:49:05;;;;;;;2.93;2.73;;;;;;;24.61;44.11;94859.31;6144425;28;103277;-76
2022/09/12 02:52:11;;;;;;;2.90;2.70;;;;;;;24.60;44.33;94852.41;6162796;28;106377;-76
2022/09/12 02:55:15;;;;;;;2.37;2.17;;;;;;;24.58;44.27;94852.75;6163799;28;103683;-76
2022/09/12 02:58:24;;;;;;;2.70;2.50;;;;;;;24.60;44.15;94860.44;6164021;28;103175;-76
2022/09/12 03:01:40;;;;;;;2.70;2.50;;;;;;;24.58;44.14;94857.31;6136921;28;102795;-77
2022/09/12 03:05:13;;;;;;;2.97;2.70;;;;;;;24.56;44.22;94870.22;6164782;28;103676;-79
2022/09/12 03:08:35;;;;;;;6.70;2.50;;;;;;;24.48;43.74;94861.94;6139699;28;103203;-77
2022/09/12 03:11:51;;;;;;;2.60;2.40;;;;;;;24.54;43.54;94865.22;6152843;28;103478;-76
2022/09/12 03:15:17;;;;;;;2.87;2.10;;;;;;;24.55;43.33;94868.66;6163214;28;103325;-76
2022/09/12 03:18:34;;;;;;;4.63;2.87;;;;;;;24.57;43.70;94863.78;6162336;28;103527;-76
2022/09/12 03:21:50;;;;;;;2.90;2.43;;;;;;;24.55;43.59;94860.66;6158581;28;103350;-75
2022/09/12 03:25:00;;;;;;;3.80;2.43;;;;;;;24.48;43.24;94864.59;6160950;28;103381;-76
2022/09/12 03:28:08;;;;;;;2.57;2.37;;;;;;;24.52;43.31;94864.72;6163170;28;103020;-77
2022/09/12 03:31:15;;;;;;;2.83;2.60;;;;;;;24.50;43.09;94858.91;6161749;28;103140;-76
2022/09/12 03:34:18;;;;;;;3.57;2.40;;;;;;;24.49;43.43;94860.81;6155048;28;103225;-76
2022/09/12 03:37:23;;;;;;;2.70;2.50;;;;;;;24.49;43.23;94868.84;6162815;28;105187;-76
2022/09/12 03:40:26;;;;;;;2.90;2.70;;;;;;;24.52;43.37;94866.63;6162422;28;104047;-74
2022/09/12 03:43:29;;;;;;;5.10;3.10;;;;;;;24.53;43.12;94865.50;6162242;28;104809;-78
2022/09/12 03:46:33;;;;;;;13.63;4.20;;;;;;;24.48;43.21;94864.59;6153855;28;103431;-77
2022/09/12 03:49:36;;;;;;;6.50;3.10;;;;;;;24.47;44.37;94857.69;6159497;28;103248;-76
2022/09/12 03:52:40;;;;;;;4.57;2.57;;;;;;;24.51;43.62;94855.13;6154163;28;104010;-76
2022/09/12 03:55:43;;;;;;;6.43;3.00;;;;;;;24.52;43.65;94856.69;6161347;28;103134;-76
2022/09/12 03:58:47;;;;;;;3.53;2.80;;;;;;;24.60;43.68;94855.09;6154194;28;104611;-76
2022/09/12 04:01:50;;;;;;;3.00;2.60;;;;;;;24.62;43.32;94850.97;6171810;28;105149;-77
2022/09/12 04:04:53;;;;;;;4.90;3.07;;;;;;;24.63;43.21;94854.44;6161236;28;104376;-77
2022/09/12 04:07:58;;;;;;;2.60;2.40;;;;;;;24.61;42.83;94857.44;6153814;28;103111;-76
2022/09/12 04:11:05;;;;;;;3.30;3.00;;;;;;;24.58;42.64;94862.66;6161915;28;103565;-77
2022/09/12 04:14:08;;;;;;;3.83;2.80;;;;;;;24.53;42.83;94862.84;6164662;28;103224;-77
2022/09/12 04:17:11;;;;;;;8.20;3.07;;;;;;;24.56;43.74;94864.88;6165512;28;103922;-76
2022/09/12 04:20:15;;;;;;;5.27;2.53;;;;;;;24.57;42.88;94867.22;6158147;28;103396;-76
2022/09/12 04:23:19;;;;;;;4.23;2.70;;;;;;;24.52;43.29;94874.66;6165698;28;104481;-77
2022/09/12 04:26:23;;;;;;;5.10;2.73;;;;;;;24.28;42.61;94875.28;6165139;28;103219;-77
2022/09/12 04:29:26;;;;;;;3.30;2.63;;;;;;;24.37;42.77;94884.84;6165162;28;103410;-77
2022/09/12 04:32:30;;;;;;;3.97;2.83;;;;;;;24.42;42.87;94886.53;6156869;28;103222;-75
2022/09/12 04:35:35;;;;;;;2.73;2.53;;;;;;;24.38;42.50;94880.25;6164373;28;103623;-76
2022/09/12 04:38:39;;;;;;;3.07;2.87;;;;;;;24.41;42.53;94891.09;6164279;28;103299;-76
2022/09/12 04:41:43;;;;;;;4.77;3.00;;;;;;;24.44;42.40;94886.97;6158809;28;103047;-76
2022/09/12 04:44:46;;;;;;;4.20;2.97;;;;;;;24.43;42.61;94888.88;6164299;28;105438;-77
2022/09/12 04:47:49;;;;;;;3.67;3.40;;;;;;;24.39;42.56;94879.94;6165014;28;106012;-76
2022/09/12 04:50:52;;;;;;;3.40;3.10;;;;;;;24.39;42.44;94892.53;6164667;28;103848;-77
2022/09/12 04:53:59;;;;;;;3.80;3.10;;;;;;;24.38;42.39;94886.41;6157429;28;103507;-77
2022/09/12 04:57:02;;;;;;;3.00;2.80;;;;;;;24.37;42.55;94894.75;6164079;28;103225;-76
2022/09/12 05:00:06;;;;;;;5.23;3.77;;;;;;;24.30;42.43;94895.25;6164641;28;103200;-77
2022/09/12 05:03:09;;;;;;;4.10;3.80;;;;;;;24.24;42.45;94893.09;6164876;28;103134;-76
2022/09/12 05:06:16;;;;;;;3.03;2.80;;;;;;;24.30;42.80;94895.25;6157637;28;103960;-76
2022/09/12 05:09:21;;;;;;;3.50;3.20;;;;;;;24.35;42.45;94889.69;6165036;28;103617;-76
2022/09/12 05:12:24;;;;;;;3.40;3.13;;;;;;;24.33;42.54;94897.25;6164878;28;103506;-77
2022/09/12 05:15:27;;;;;;;4.87;3.00;;;;;;;24.32;42.61;94893.03;6161146;28;103448;-77
2022/09/12 05:18:31;;;;;;;3.40;3.20;;;;;;;24.34;42.48;94885.44;6161176;28;103286;-76
2022/09/12 05:21:35;;;;;;;3.63;2.80;;;;;;;24.35;42.40;94889.69;6164424;28;104395;-77
2022/09/12 05:24:42;;;;;;;2.47;2.37;;;;;;;24.38;42.39;94885.63;6164069;28;103083;-76
2022/09/12 05:27:53;;;;;;;3.40;2.77;;;;;;;24.34;42.58;94885.44;6156941;28;103435;-76
2022/09/12 05:31:01;;;;;;;2.90;2.60;;;;;;;24.35;42.31;94884.34;6164165;28;103338;-76
2022/09/12 05:34:08;;;;;;;3.27;2.90;;;;;;;24.37;42.26;94889.41;6164787;28;103434;-76
2022/09/12 05:37:12;;;;;;;3.20;2.90;;;;;;;24.37;42.35;94884.84;6164282;28;103301;-77
2022/09/12 05:40:18;;;;;;;4.20;2.50;;;;;;;24.42;42.06;94889.19;6156235;28;104954;-77
2022/09/12 05:43:21;;;;;;;2.80;2.60;;;;;;;24.42;41.96;94887.31;6164217;28;103381;-76
2022/09/12 05:46:26;;;;;;;3.40;2.23;;;;;;;24.40;41.99;94878.81;6163517;28;103325;-79
2022/09/12 05:49:29;;;;;;;2.60;2.40;;;;;;;24.38;41.87;94872.25;6160123;28;103127;-76
2022/09/12 05:52:32;;;;;;;3.13;2.43;;;;;;;24.32;42.37;94871.63;6160276;28;104121;-76
2022/09/12 05:55:36;;;;;;;2.90;2.70;;;;;;;24.38;42.04;94875.69;6163411;28;106215;-76
2022/09/12 05:58:42;;;;;;;4.83;2.87;;;;;;;24.45;42.08;94870.59;6162883;28;103326;-76
2022/09/12 06:01:45;;;;;;;3.80;2.83;;;;;;;24.55;42.21;94866.00;6154810;28;103269;-77
2022/09/12 06:04:48;;;;;;;4.30;2.83;;;;;;;24.67;41.85;94858.78;6164441;28;103663;-76
2022/09/12 06:07:52;;;;;;;3.27;2.97;;;;;;;24.81;41.32;94860.47;6163962;28;103075;-77
2022/09/12 06:11:00;;;;;;;2.77;2.57;;;;;;;24.88;41.35;94863.41;6163421;28;103042;-74
2022/09/12 06:14:04;;;;;;;3.00;2.80;;;;;;;24.79;40.87;94864.25;6154776;28;103434;-77
2022/09/12 06:17:07;;;;;;;4.33;3.00;;;;;;;24.85;41.35;94859.47;6163242;28;103611;-76
2022/09/12 06:20:10;;;;;;;8.70;3.20;;;;;;;24.84;41.59;94852.56;6163806;28;103188;-78
2022/09/12 06:23:13;;;;;;;3.53;3.00;;;;;;;24.90;41.23;94861.97;6161751;28;103271;-76
2022/09/12 06:26:20;;;;;;;4.13;2.60;;;;;;;24.96;41.35;94855.28;6159314;28;103535;-76
2022/09/12 06:29:23;;;;;;;4.77;3.17;;;;;;;25.05;41.28;94866.72;6163546;28;102918;-77
2022/09/12 06:32:30;;;;;;;3.30;3.10;;;;;;;25.10;41.28;94863.06;6164784;28;103279;-78
2022/09/12 06:35:36;;;;;;;3.00;2.80;;;;;;;25.16;41.08;94864.41;6157933;28;103702;-76
2022/09/12 06:38:39;;;;;;;3.30;3.00;;;;;;;25.17;41.22;94879.34;6164405;28;103355;-76
2022/09/12 06:41:45;;;;;;;4.23;3.30;;;;;;;25.23;41.04;94878.06;6163692;28;106408;-76
2022/09/12 06:44:49;;;;;;;3.00;2.80;;;;;;;25.27;40.85;94881.63;6163547;28;104644;-78
2022/09/12 06:47:52;;;;;;;3.33;3.03;;;;;;;25.31;41.00;94882.53;6155881;28;104104;-76
2022/09/12 06:50:57;;;;;;;3.10;2.90;;;;;;;25.33;41.21;94892.91;6162962;28;103270;-76
2022/09/12 06:54:00;;;;;;;3.03;2.83;;;;;;;25.35;41.03;94880.00;6162101;28;103459;-76
2022/09/12 06:57:05;;;;;;;3.30;3.10;;;;;;;25.38;41.25;94896.22;6162972;28;103229;-77
2022/09/12 07:00:10;;;;;;;3.43;3.23;;;;;;;25.38;40.75;94895.44;6154889;28;104966;-77
2022/09/12 07:03:13;;;;;;;3.30;3.10;;;;;;;25.42;41.26;94888.31;6162789;28;104063;-77
2022/09/12 07:06:18;;;;;;;4.07;3.77;;;;;;;25.44;41.19;94898.69;6163462;28;105118;-77
2022/09/12 07:09:21;;;;;;;3.00;2.80;;;;;;;25.42;40.94;94888.31;6156161;28;103868;-76
2022/09/12 07:12:27;;;;;;;3.53;3.23;;;;;;;25.39;41.05;94902.34;6162618;28;103130;-76
2022/09/12 07:15:30;;;;;;;3.70;3.50;;;;;;;25.41;41.31;94905.50;6162783;28;102996;-76
2022/09/12 07:18:34;;;;;;;3.77;3.47;;;;;;;25.44;41.20;94904.03;6161728;28;103450;-76
2022/09/12 07:21:38;;;;;;;3.40;3.20;;;;;;;25.45;40.85;94909.06;6155140;28;103715;-76
2022/09/12 07:24:44;;;;;;;3.80;3.50;;;;;;;25.49;41.13;94909.97;6166992;28;106613;-75
2022/09/12 07:27:49;;;;;;;4.10;3.40;;;;;;;25.48;41.16;94910.31;6167368;28;104430;-77
2022/09/12 07:30:53;;;;;;;3.80;3.47;;;;;;;25.52;40.98;94898.59;6165758;28;103468;-78
2022/09/12 07:33:56;;;;;;;3.20;3.00;;;;;;;25.52;40.49;94900.47;6159694;28;103637;-77
2022/09/12 07:36:59;;;;;;;3.67;3.37;;;;;;;25.55;40.88;94905.19;6166579;28;103439;-78
2022/09/12 07:40:02;;;;;;;4.33;3.70;;;;;;;25.55;41.04;94902.53;6166119;28;102956;-77
2022/09/12 07:43:07;;;;;;;3.90;3.60;;;;;;;25.55;40.81;94905.97;6162064;28;103037;-77
2022/09/12 07:46:10;;;;;;;3.30;3.10;;;;;;;25.58;40.71;94899.19;6164250;28;104205;-77
2022/09/12 07:49:14;;;;;;;3.33;3.13;;;;;;;25.58;41.06;94902.63;6166032;28;103008;-78
2022/09/12 07:52:17;;;;;;;3.83;3.53;;;;;;;25.49;40.87;94899.25;6167038;28;103267;-78
2022/09/12 07:55:21;;;;;;;3.83;3.60;;;;;;;25.55;40.90;94897.94;6158772;28;103317;-78
2022/09/12 07:58:26;;;;;;;5.67;4.10;;;;;;;25.60;40.97;94905.75;6165972;28;103023;-77
2022/09/12 08:01:30;;;;;;;4.33;3.77;;;;;;;25.59;40.53;94906.88;6164735;28;103492;-77
2022/09/12 08:04:35;;;;;;;4.00;3.80;;;;;;;25.64;40.21;94903.19;6166690;28;105585;-77
2022/09/12 08:07:38;;;;;;;4.40;4.10;;;;;;;25.63;40.16;94894.38;6158684;28;103574;-77
2022/09/12 08:10:41;;;;;;;4.30;4.00;;;;;;;25.66;40.59;94895.59;6166274;28;103561;-77
2022/09/12 08:13:47;;;;;;;4.33;4.00;;;;;;;25.64;40.34;94898.63;6166249;28;103175;-77
2022/09/12 08:16:57;;;;;;;3.97;3.70;;;;;;;25.63;40.46;94902.41;6163397;28;103362;-76
2022/09/12 08:20:00;;;;;;;4.27;3.97;;;;;;;25.64;40.32;94898.63;6161545;28;102963;-76
2022/09/12 08:23:04;;;;;;;4.33;4.13;;;;;;;25.64;40.59;94903.97;6165605;28;103544;-77
2022/09/12 08:26:07;;;;;;;4.30;3.90;;;;;;;25.63;40.51;94897.06;6165661;28;103254;-76
2022/09/12 08:29:12;;;;;;;4.50;4.20;;;;;;;25.69;39.95;94895.72;6157856;28;104360;-76
2022/09/12 08:32:15;;;;;;;3.67;3.37;;;;;;;25.75;39.55;94892.84;6164405;28;103075;-76
2022/09/12 08:35:18;;;;;;;3.70;3.50;;;;;;;25.64;39.60;94895.16;6165207;28;103200;-76
2022/09/12 08:38:22;;;;;;;4.27;3.97;;;;;;;25.61;40.02;94898.50;6165680;28;102976;-76
2022/09/12 08:41:30;;;;;;;4.30;4.00;;;;;;;25.59;40.29;94903.41;6161803;28;104732;-77
2022/09/12 08:44:53;;;;;;;4.37;3.97;;;;;;;25.53;40.13;94900.16;6165359;28;103580;-76
2022/09/12 08:47:56;;;;;;;4.20;3.90;;;;;;;25.45;40.14;94886.84;6165760;28;103351;-77
2022/09/12 08:51:03;;;;;;;5.73;4.60;;;;;;;25.44;40.44;94894.09;6161959;28;103556;-76
2022/09/12 08:54:19;;;;;;;4.40;4.10;;;;;;;25.38;40.67;94898.91;6160676;28;103088;-77
2022/09/12 08:57:24;;;;;;;4.07;3.77;;;;;;;25.33;40.28;94892.91;6164859;28;103625;-77
2022/09/12 09:00:39;;;;;;;3.90;3.70;;;;;;;25.26;40.90;94892.69;6164704;28;103499;-78
2022/09/12 09:04:04;;;;;;;4.37;4.07;;;;;;;25.21;40.35;94893.69;6156627;28;104360;-75
2022/09/12 09:07:33;;;;;;;3.80;3.60;;;;;;;25.16;40.33;94885.81;6164662;28;103252;-77
2022/09/12 09:10:47;;;;;;;5.30;3.60;;;;;;;25.22;40.21;94889.09;6164518;28;103791;-76
2022/09/12 09:17:27;;;;;;;4.50;4.20;;;;;;;25.25;40.08;94877.72;6164435;28;103035;-75
2022/09/12 09:20:35;;;;;;;3.80;3.60;;;;;;;25.23;39.95;94879.94;6165415;28;103388;-78
2022/09/12 09:23:42;;;;;;;4.20;3.90;;;;;;;25.27;40.05;94867.47;6164555;28;103375;-77
2022/09/12 09:26:51;;;;;;;3.83;3.60;;;;;;;25.30;40.56;94866.78;6157735;28;103274;-76
2022/09/12 09:29:56;;;;;;;3.73;3.50;;;;;;;25.32;39.79;94862.66;6163080;28;104155;-76
2022/09/12 09:33:03;;;;;;;3.83;3.63;;;;;;;25.29;39.96;94865.22;6164147;28;102982;-77
2022/09/12 09:36:21;;;;;;;4.10;3.90;;;;;;;25.32;40.18;94851.94;6162452;28;103717;-76
2022/09/12 09:39:36;;;;;;;4.20;4.00;;;;;;;25.35;39.82;94858.56;6159158;28;103522;-77
2022/09/12 09:42:45;;;;;;;4.70;4.40;;;;;;;25.34;39.43;94856.97;6164108;28;103428;-78
2022/09/12 09:45:50;;;;;;;4.23;3.93;;;;;;;25.29;39.46;94860.66;6163482;28;102665;-77
2022/09/12 09:48:58;;;;;;;4.43;4.13;;;;;;;25.29;39.86;94859.88;6156399;28;103614;-77
2022/09/12 09:52:07;;;;;;;4.93;4.20;;;;;;;25.30;39.55;94851.50;6163850;28;103349;-77
2022/09/12 09:55:16;;;;;;;4.37;4.07;;;;;;;25.36;39.68;94850.19;6163885;28;104523;-77
2022/09/12 09:58:29;;;;;;;4.73;4.43;;;;;;;25.32;39.40;94849.28;6164531;28;103482;-77
2022/09/12 10:01:32;;;;;;;4.40;4.00;;;;;;;25.31;39.38;94847.72;6155544;28;103442;-78
2022/09/12 10:04:40;;;;;;;4.97;4.50;;;;;;;25.31;39.49;94857.66;6164193;28;102796;-77
2022/09/12 10:07:50;;;;;;;5.30;4.93;;;;;;;25.28;39.17;94850.28;6162895;28;103363;-77
2022/09/12 10:10:59;;;;;;;5.63;5.10;;;;;;;25.25;39.75;94849.03;6156016;28;103477;-76
2022/09/12 10:14:03;;;;;;;4.97;4.67;;;;;;;25.24;39.96;94844.03;6162514;28;103238;-77
2022/09/12 10:17:28;;;;;;;5.17;4.77;;;;;;;25.26;39.51;94849.81;6163291;28;103335;-77
2022/09/12 10:20:40;;;;;;;5.10;4.70;;;;;;;25.27;39.72;94851.38;6162665;28;103161;-76
2022/09/12 10:23:44;;;;;;;4.63;4.33;;;;;;;25.29;39.72;94841.91;6155871;28;103520;-78
2022/09/12 10:26:52;;;;;;;5.30;4.90;;;;;;;25.30;39.59;94834.66;6163271;28;103105;-77
2022/09/12 10:30:02;;;;;;;4.93;4.63;;;;;;;25.35;39.37;94837.13;6164644;28;105582;-77
2022/09/12 10:33:11;;;;;;;4.90;4.60;;;;;;;25.32;39.14;94848.50;6159991;28;102988;-77
2022/09/12 10:36:17;;;;;;;4.70;4.40;;;;;;;25.28;39.50;94842.25;6158829;28;102961;-76
2022/09/12 10:39:21;;;;;;;5.33;4.87;;;;;;;25.29;39.32;94841.91;6162046;28;103328;-79
2022/09/12 10:42:46;;;;;;;4.90;4.40;;;;;;;25.24;39.34;94852.06;6162750;28;103236;-76
2022/09/12 10:45:50;;;;;;;5.80;5.40;;;;;;;25.25;39.34;94850.94;6155317;28;103240;-76
2022/09/12 10:49:13;;;;;;;5.13;4.73;;;;;;;25.24;39.40;94841.34;6162699;28;103115;-76
2022/09/12 10:52:23;;;;;;;5.40;5.00;;;;;;;25.18;39.48;94853.34;6162509;28;103050;-76
2022/09/12 10:55:35;;;;;;;5.53;5.17;;;;;;;25.20;39.59;94841.19;6162696;28;107562;-76
2022/09/12 10:59:06;;;;;;;6.30;4.50;;;;;;;25.25;39.75;94840.22;6161723;28;103457;-76
2022/09/12 11:02:20;;;;;;;5.17;4.87;;;;;;;25.22;39.10;94840.91;6167416;28;103690;-76
2022/09/12 11:05:38;;;;;;;4.60;4.30;;;;;;;25.21;39.32;94842.00;6167037;28;103365;-76
2022/09/12 11:08:58;;;;;;;5.73;5.17;;;;;;;25.22;39.11;94839.00;6159676;28;103435;-76
2022/09/12 11:12:11;;;;;;;5.10;4.70;;;;;;;25.24;39.15;94831.41;6166008;28;103577;-76
2022/09/12 11:15:34;;;;;;;4.80;4.50;;;;;;;25.15;39.18;94824.56;6166303;28;103428;-77
2022/09/12 11:18:56;;;;;;;5.13;4.83;;;;;;;25.13;39.29;94832.16;6163323;28;103131;-77
2022/09/12 11:22:20;;;;;;;5.50;5.10;;;;;;;25.13;38.87;94829.47;6164419;28;103521;-76
2022/09/12 11:25:31;;;;;;;5.57;5.27;;;;;;;25.15;39.00;94835.28;6167294;28;106720;-77
2022/09/12 11:28:43;;;;;;;5.23;4.93;;;;;;;25.13;39.41;94840.97;6167517;28;103908;-77
2022/09/12 11:32:08;;;;;;;5.70;5.20;;;;;;;25.08;39.24;94839.28;6160840;28;104013;-77
2022/09/12 11:35:19;;;;;;;5.77;5.47;;;;;;;25.07;39.19;94832.38;6168326;28;103526;-77
2022/09/12 11:38:37;;;;;;;5.33;5.00;;;;;;;25.07;39.80;94829.69;6168953;28;104057;-77
2022/09/12 11:41:46;;;;;;;6.33;5.83;;;;;;;25.08;39.47;94838.50;6160187;28;102698;-77
2022/09/12 11:44:58;;;;;;;5.40;5.10;;;;;;;25.05;39.28;94834.59;6164727;28;103597;-77
2022/09/12 11:48:07;;;;;;;6.03;5.73;;;;;;;25.04;39.39;94842.97;6166316;28;103587;-75
2022/09/12 11:51:18;;;;;;;6.20;5.80;;;;;;;24.98;39.14;94847.72;6165706;28;103201;-77
2022/09/12 11:54:28;;;;;;;5.90;5.40;;;;;;;25.04;39.15;94829.56;6158111;28;103287;-76
2022/09/12 11:57:39;;;;;;;5.60;5.20;;;;;;;24.99;39.16;94835.88;6165494;28;103045;-76
2022/09/12 12:00:48;;;;;;;5.77;5.37;;;;;;;25.03;39.15;94828.78;6165283;28;103522;-76
2022/09/12 12:03:54;;;;;;;5.70;5.40;;;;;;;25.02;39.38;94851.28;6161738;28;103233;-76
2022/09/12 12:07:04;;;;;;;5.97;5.57;;;;;;;25.03;39.36;94842.19;6162101;28;104285;-77
2022/09/12 12:10:26;;;;;;;5.60;5.30;;;;;;;25.00;39.01;94832.09;6165267;28;103378;-77
2022/09/12 12:13:34;;;;;;;6.07;5.67;;;;;;;25.01;39.49;94839.03;6166318;28;103052;-77
2022/09/12 12:16:39;;;;;;;6.23;5.83;;;;;;;24.98;39.30;94839.69;6156086;28;103242;-78
2022/09/12 12:19:42;;;;;;;6.20;5.80;;;;;;;25.00;39.37;94826.75;6164888;28;103072;-78
2022/09/12 12:22:52;;;;;;;6.37;5.87;;;;;;;25.01;39.22;94836.34;6165447;28;103445;-76
2022/09/12 12:25:57;;;;;;;5.93;5.53;;;;;;;25.00;39.54;94825.97;6165387;28;103270;-77
2022/09/12 12:29:02;;;;;;;6.07;5.67;;;;;;;24.98;39.38;94831.66;6157952;28;102790;-77
2022/09/12 12:32:27;;;;;;;5.80;5.40;;;;;;;24.96;39.70;94819.72;6165237;28;103465;-77
2022/09/12 12:35:41;;;;;;;5.90;5.40;;;;;;;25.01;39.58;94825.63;6165517;28;104294;-77
2022/09/12 12:38:44;;;;;;;5.30;4.90;;;;;;;25.00;39.49;94815.25;6157546;28;103603;-77
2022/09/12 12:41:47;;;;;;;5.07;4.70;;;;;;;25.01;39.33;94825.63;6165372;28;105398;-77
2022/09/12 12:44:52;;;;;;;5.50;5.20;;;;;;;25.00;39.68;94831.31;6165665;28;103292;-77
2022/09/12 12:48:00;;;;;;;4.90;4.60;;;;;;;25.00;39.22;94826.75;6164193;28;103449;-78
2022/09/12 12:51:47;;;;;;;5.13;4.83;;;;;;;25.00;39.32;94837.44;6156580;28;103323;-77
2022/09/12 12:54:55;;;;;;;5.00;4.70;;;;;;;25.00;39.15;94832.09;6088970;28;103229;-76
2022/09/12 12:58:00;;;;;;;5.17;4.87;;;;;;;24.97;39.34;94818.59;6089398;28;103230;-77
2022/09/12 13:01:11;;;;;;;5.43;4.57;;;;;;;25.01;39.57;94820.28;6157866;28;103381;-77
2022/09/12 13:04:18;;;;;;;4.87;4.57;;;;;;;25.04;39.52;94832.25;6163912;28;102931;-75
2022/09/12 13:07:27;;;;;;;4.67;4.40;;;;;;;25.01;39.62;94839.03;6165113;28;103108;-75
2022/09/12 13:10:31;;;;;;;4.47;4.20;;;;;;;24.99;39.77;94840.47;6164801;28;103280;-77
2022/09/12 13:13:39;;;;;;;4.23;4.03;;;;;;;24.98;39.60;94842.34;6156497;28;103323;-77
2022/09/12 13:16:55;;;;;;;4.67;4.37;;;;;;;25.02;39.68;94851.28;6164913;28;103115;-76
2022/09/12 13:20:06;;;;;;;4.70;4.40;;;;;;;25.00;39.39;94840.13;6163876;28;106829;-75
2022/09/12 13:23:31;;;;;;;4.97;4.57;;;;;;;25.04;40.23;94832.25;6159839;28;103254;-75
2022/09/12 13:26:40;;;;;;;4.40;4.10;;;;;;;25.00;40.32;94826.75;6159914;28;103242;-77
2022/09/12 13:29:43;;;;;;;4.47;4.13;;;;;;;25.02;40.00;94834.44;6164147;28;103039;-77
2022/09/12 13:32:48;;;;;;;5.13;4.73;;;;;;;25.01;40.19;94822.94;6164657;28;103397;-78
2022/09/12 13:36:08;;;;;;;4.90;4.57;;;;;;;25.06;39.86;94830.81;6155631;28;103232;-76
2022/09/12 13:39:19;;;;;;;5.07;4.60;;;;;;;25.06;40.06;94830.03;6163692;28;103071;-75
2022/09/12 13:42:41;;;;;;;4.83;4.53;;;;;;;25.05;40.05;94823.88;6163917;28;102667;-78
2022/09/12 13:45:46;;;;;;;5.40;4.57;;;;;;;25.08;39.84;94833.94;6163347;28;103017;-77
2022/09/12 13:48:51;;;;;;;4.80;4.50;;;;;;;25.04;39.86;94821.53;6159167;28;103182;-77
2022/09/12 13:52:00;;;;;;;4.87;4.53;;;;;;;25.12;40.17;94825.22;6163374;28;103063;-76
2022/09/12 13:55:08;;;;;;;5.07;4.67;;;;;;;25.21;40.29;94824.03;6163549;28;103042;-77
2022/09/12 13:58:23;;;;;;;4.67;4.37;;;;;;;25.26;39.71;94829.19;6156375;28;106952;-76
2022/09/12 14:01:38;;;;;;;4.67;4.37;;;;;;;25.26;40.07;94828.41;6163500;28;103336;-77
2022/09/12 14:08:09;;;;;;;4.70;4.40;;;;;;;25.27;39.48;94824.59;6153067;28;103126;-77
2022/09/12 14:11:21;;;;;;;4.63;4.33;;;;;;;25.28;39.43;94826.16;6154602;28;103437;-77
2022/09/12 14:14:30;;;;;;;5.50;5.10;;;;;;;25.27;39.58;94828.06;6163317;28;103445;-77
2022/09/12 14:17:36;;;;;;;5.00;4.70;;;;;;;25.25;39.66;94827.63;6164171;28;103146;-77
2022/09/12 14:20:41;;;;;;;5.23;4.73;;;;;;;25.25;39.79;94824.16;6156566;28;106065;-77
2022/09/12 14:23:47;;;;;;;5.27;4.90;;;;;;;25.25;40.10;94829.50;6162543;28;103581;-77
2022/09/12 14:26:55;;;;;;;5.30;5.00;;;;;;;25.22;40.11;94819.47;6163870;28;103101;-76
2022/09/12 14:30:02;;;;;;;5.50;5.20;;;;;;;25.23;40.10;94827.16;6163497;28;103052;-77
2022/09/12 14:33:18;;;;;;;5.50;5.10;;;;;;;25.20;39.71;94822.44;6155619;28;103525;-76
2022/09/12 14:36:27;;;;;;;6.00;5.60;;;;;;;25.20;39.56;94833.16;6163926;28;103311;-76
2022/09/12 14:39:33;;;;;;;6.10;5.70;;;;;;;25.19;39.69;94828.91;6163053;28;103327;-76
2022/09/12 14:42:36;;;;;;;5.97;5.67;;;;;;;25.16;39.32;94831.47;6160167;28;104678;-77